CANAVERAL NM East of Cape Canaveral, FL (41009)

Conditions for Saturday

Daily
Weekly
Monthly
Marine Data Graph

Current Weather/Wave Observations

Air Temperature: 80° F
Humidity: 52
Wind direction (W Dir): ENE (55 - 64 Degrees)
Wind Speed (W Spd): 17.5 kts (20.1 mph)
Wind Gust (W Spd): 25.3 kts (29.1 mph)
Atmospheric Pressure (AP): 30.19 in

Updated: 10:10 AM EDT on September 21, 2019

Marine & Boating Location Search

Enter a coastal zip code for marine weather.

General Information

Location: 28.522 North -80.188 West
Buoy Type: 3-meter discus buoy
Buoy Hull: 3D86
Payload: AMPS payload
Owned by: NDBC
Windspeed: Measured by obtained from anemometer
Sea Surface: Measured by Intake

Weather and Wave Data

Time Temp Humidity Wind Dominant Wave Wind Wave Wave Swell Pressure
  Air
(°F)
Water
(°F)
  Dir Speed
(kts)
Speed
(mph)
Period
(sec)
Height
(ft)
Range
(ft)
Period
(sec)
Height
(ft)
Range
(ft)
Period
(sec)
Height
(ft)
Range
(ft)
Atmo.
(in)
Tend.
(in)
20:10 81 83 56 East 21.4 24.6 - - - - - - 30.13 -
20:20 80 83 60 East 21.4 24.6 - - - - - - 30.14 -
20:30 81 83 58 East 21.4 24.6 - - - - - - 30.14 -
20:40 81 83 57 East 21.4 24.6 - - - - - - 30.14 -
20:50 81 83 56 East 21.4 24.6 13 10.17 exactly 10.2 8 6.56 5.74 - 7.38 13 8.20 7.38 - 9.02 30.14 -
21:30 81 83 58 East 21.4 24.6 - - - - - - 30.15 -
21:40 81 83 57 ENE 21.4 24.6 - - - - - - 30.15 -
21:50 81 83 55 ENE 21.4 24.6 13 9.84 exactly 9.8 8 6.56 5.74 - 7.38 13 6.56 5.74 - 7.38 30.16 -
22:10 81 83 56 ENE 23.3 26.8 - - - - - - 30.16 -
22:40 81 83 55 ENE 23.3 26.8 - - - - - - 30.16 -
22:50 81 83 55 ENE 23.3 26.8 13 10.50 exactly 10.5 8 8.20 7.38 - 9.02 13 6.56 5.74 - 7.38 30.16 -
23:20 80 83 55 ENE 21.4 24.6 - - - - - - 30.16 -
23:30 80 83 53 ENE 21.4 24.6 - - - - - - 30.16 -
23:40 81 83 50 ENE 21.4 24.6 - - - - - - 30.16 -
00:10 81 83 50 East 19.4 22.4 - - - - - - 30.17 -
00:20 81 83 48 ENE 19.4 22.4 - - - - - - 30.16 -
00:30 81 83 48 East 19.4 22.4 - - - - - - 30.15 -
00:40 81 83 47 East 19.4 22.4 - - - - - - 30.15 -
01:00 81 83 46 East 17.5 20.1 - - - - - - 30.15 -0.01
01:10 80 83 49 East 19.4 22.4 - - - - - - 30.15 -
01:30 80 83 53 East 17.5 20.1 - - - - - - 30.15 -
01:40 80 83 53 East 17.5 20.1 - - - - - - 30.14 -
01:50 80 83 52 East 17.5 20.1 13 10.17 exactly 10.2 7 6.56 5.74 - 7.38 13 6.56 5.74 - 7.38 30.14 -
02:10 80 83 50 East 19.4 22.4 - - - - - - 30.14 -
02:20 80 83 49 East 19.4 22.4 - - - - - - 30.14 -
02:30 80 83 50 East 17.5 20.1 - - - - - - 30.14 -
02:40 80 83 54 East 17.5 20.1 - - - - - - 30.13 -
02:50 80 83 54 East 17.5 20.1 15 10.50 exactly 10.5 8 6.56 5.74 - 7.38 15 8.20 7.38 - 9.02 30.14 -
03:10 81 83 50 East 17.5 20.1 - - - - - - 30.13 -
03:20 80 83 54 East 17.5 20.1 - - - - - - 30.13 -
03:30 80 83 57 East 15.6 17.9 - - - - - - 30.13 -
03:40 80 83 58 East 19.4 22.4 - - - - - - 30.12 -
03:50 80 83 58 East 17.5 20.1 15 11.15 exactly 11.2 8 6.56 5.74 - 7.38 15 8.20 7.38 - 9.02 30.13 -
04:10 80 83 53 East 19.4 22.4 - - - - - - 30.12 -
04:20 80 83 53 East 19.4 22.4 - - - - - - 30.12 -
04:50 80 83 51 East 17.5 20.1 14 11.81 exactly 11.8 8 8.20 7.38 - 9.02 14 8.20 7.38 - 9.02 30.12 -
05:00 80 83 52 East 17.5 20.1 - - - - - - 30.12 -0.02
05:10 80 83 54 East 17.5 20.1 - - - - - - 30.12 -
05:20 80 83 51 East 17.5 20.1 - - - - - - 30.13 -
05:40 81 83 52 East 17.5 20.1 - - - - - - 30.13 -
06:00 80 83 55 East 19.4 22.4 - - - - - - 30.14 -
06:10 80 83 53 East 19.4 22.4 - - - - - - 30.14 -
06:40 80 83 51 East 17.5 20.1 - - - - - - 30.14 -
07:10 80 83 48 East 17.5 20.1 - - - - - - 30.15 -
07:30 81 83 48 ENE 19.4 22.4 - - - - - - 30.15 -
07:40 81 83 49 ENE 17.5 20.1 - - - - - - 30.16 -
07:50 81 83 48 ENE 17.5 20.1 15 10.83 exactly 10.8 8 6.56 5.74 - 7.38 15 8.20 7.38 - 9.02 30.16 -
08:10 81 83 49 ENE 19.4 22.4 - - - - - - 30.16 -
08:20 81 83 52 ENE 17.5 20.1 - - - - - - 30.17 -
08:30 81 83 49 ENE 19.4 22.4 - - - - - - 30.17 -
08:40 81 83 49 ENE 19.4 22.4 - - - - - - 30.17 -
08:50 81 83 50 ENE 19.4 22.4 13 9.51 exactly 9.5 7 6.56 5.74 - 7.38 13 6.56 5.74 - 7.38 30.17 -
09:10 81 83 49 ENE 19.4 22.4 - - - - - - 30.18 -
09:40 80 83 54 ENE 19.4 22.4 - - - - - - 30.19 -
09:50 80 83 54 ENE 19.4 22.4 16 10.50 exactly 10.5 6 6.56 5.74 - 7.38 16 8.20 7.38 - 9.02 30.20 -
10:00 80 83 52 ENE 19.4 22.4 - - - - - - 30.19 +0.05
10:10 80 83 52 ENE 17.5 20.1 - - - - - - 30.19 -

Detailed Wave Spectra

Time Water Depth Wave Height Spectral Peak Period Average Wave Period Sampling Interval Wave Record
20:00 138 ft 9.12 ft 13.8 sec 6.9 sec 0.6 sec 2400 sec
22:00 138 ft 9.71 ft 12.9 sec 6.7 sec 0.6 sec 2400 sec
23:00 138 ft 10.40 ft 12.9 sec 7.0 sec 0.6 sec 2400 sec
00:00 138 ft 9.78 ft 12.9 sec 7.0 sec 0.6 sec 2400 sec
03:00 138 ft 10.60 ft 14.8 sec 7.7 sec 0.6 sec 2400 sec
04:00 138 ft 11.06 ft 14.8 sec 7.9 sec 0.6 sec 2400 sec
08:00 138 ft 10.89 ft 14.8 sec 7.8 sec 0.6 sec 2400 sec
09:00 138 ft 9.51 ft 12.9 sec 6.9 sec 0.6 sec 2400 sec